createdAt,value
2023-03-15T00:00:52.365Z,0.70
2023-03-15T00:03:19.284Z,0.95
2023-03-15T00:05:47.662Z,1.17
2023-03-15T00:08:15.944Z,1.42
2023-03-15T00:10:46.996Z,1.08
2023-03-15T00:13:18.410Z,1.30
2023-03-15T00:15:50.500Z,2.10
2023-03-15T00:18:19.635Z,1.98
2023-03-15T00:20:50.514Z,1.08
2023-03-15T00:23:17.546Z,0.93
2023-03-15T00:25:49.378Z,1.10
2023-03-15T00:28:16.736Z,1.10
2023-03-15T00:30:44.450Z,0.93
2023-03-15T00:33:13.888Z,1.00
2023-03-15T00:35:42.938Z,0.95
2023-03-15T00:38:10.044Z,1.40
2023-03-15T00:40:38.197Z,1.02
2023-03-15T00:43:05.449Z,1.00
2023-03-15T00:45:32.524Z,1.70
2023-03-15T00:47:59.860Z,1.33
2023-03-15T00:50:26.930Z,1.33
2023-03-15T00:52:53.806Z,1.58
2023-03-15T00:55:21.721Z,1.70
2023-03-15T00:57:49.267Z,1.70
2023-03-15T01:00:27.897Z,1.42
2023-03-15T01:02:55.011Z,1.50
2023-03-15T01:05:22.918Z,1.52
2023-03-15T01:07:50.132Z,1.10
2023-03-15T01:10:17.494Z,1.48
2023-03-15T01:12:45.039Z,1.10
2023-03-15T01:15:15.026Z,0.80
2023-03-15T01:17:42.585Z,0.70
2023-03-15T01:20:11.926Z,0.50
2023-03-15T01:22:39.198Z,0.50
2023-03-15T01:25:06.558Z,0.55
2023-03-15T01:27:33.373Z,0.60
2023-03-15T01:30:00.285Z,0.60
2023-03-15T01:32:27.385Z,0.60
2023-03-15T01:34:54.204Z,0.45
2023-03-15T01:37:24.731Z,0.60
2023-03-15T01:39:52.133Z,0.70
2023-03-15T01:42:19.316Z,0.60
2023-03-15T01:44:59.926Z,0.82
2023-03-15T01:47:27.884Z,0.50
2023-03-15T01:50:08.759Z,0.82
2023-03-15T01:52:39.237Z,0.50
2023-03-15T01:55:11.235Z,0.80
2023-03-15T01:57:46.577Z,0.60
2023-03-15T02:00:16.631Z,0.50
2023-03-15T02:03:00.859Z,0.40
2023-03-15T02:05:34.084Z,0.70
2023-03-15T02:08:02.584Z,0.50
2023-03-15T02:10:44.964Z,0.57
2023-03-15T02:13:15.651Z,0.80
2023-03-15T02:15:46.855Z,0.60
2023-03-15T02:18:14.512Z,0.63
2023-03-15T02:21:03.972Z,0.70
2023-03-15T02:23:32.056Z,0.80
2023-03-15T02:26:14.327Z,0.80
2023-03-15T02:28:42.685Z,0.60
2023-03-15T02:31:10.707Z,0.60
2023-03-15T02:33:47.156Z,0.63
2023-03-15T02:36:26.551Z,0.63
2023-03-15T02:38:54.898Z,0.60
2023-03-15T02:41:38.361Z,0.88
2023-03-15T02:44:31.260Z,1.65
2023-03-15T02:47:04.428Z,3.05
2023-03-15T02:49:36.340Z,3.83
2023-03-15T02:52:03.939Z,3.15
2023-03-15T02:54:34.304Z,2.65
2023-03-15T02:57:02.464Z,2.67
2023-03-15T02:59:29.828Z,2.08
2023-03-15T03:01:57.243Z,2.30
2023-03-15T03:04:24.087Z,2.33
2023-03-15T03:06:50.900Z,2.67
2023-03-15T03:09:17.758Z,2.05
2023-03-15T03:11:45.103Z,0.82
2023-03-15T03:14:14.191Z,0.98
2023-03-15T03:16:42.756Z,1.42
2023-03-15T03:19:12.577Z,1.70
2023-03-15T03:21:39.528Z,0.70
2023-03-15T03:24:06.677Z,0.30
2023-03-15T03:26:33.893Z,0.30
2023-03-15T03:29:00.943Z,0.20
2023-03-15T03:31:28.526Z,0.20
2023-03-15T03:33:57.070Z,0.40
2023-03-15T03:36:24.943Z,0.20
2023-03-15T03:38:52.496Z,0.28
2023-03-15T03:41:19.776Z,0.50
2023-03-15T03:43:47.376Z,0.30
2023-03-15T03:46:14.298Z,0.30
2023-03-15T03:48:41.533Z,0.30
2023-03-15T03:51:08.398Z,0.60
2023-03-15T03:53:35.208Z,0.30
2023-03-15T03:56:05.564Z,0.30
2023-03-15T03:58:32.861Z,0.38
2023-03-15T04:01:00.372Z,0.50
2023-03-15T04:03:28.098Z,0.43
2023-03-15T04:05:59.123Z,0.32
2023-03-15T04:08:27.539Z,0.30
2023-03-15T04:10:56.396Z,0.13
2023-03-15T04:13:24.842Z,0.40
2023-03-15T04:15:51.900Z,0.32
2023-03-15T04:18:19.648Z,0.57
2023-03-15T04:20:47.660Z,0.57
2023-03-15T04:23:19.265Z,0.60
2023-03-15T04:25:49.650Z,1.00
2023-03-15T04:28:17.128Z,1.17
2023-03-15T04:30:45.317Z,0.68
2023-03-15T04:33:15.036Z,0.95
2023-03-15T04:35:44.837Z,0.80
2023-03-15T04:38:11.680Z,0.70
2023-03-15T04:40:39.134Z,0.82
2023-03-15T04:43:06.318Z,0.90
2023-03-15T04:45:33.730Z,0.50
2023-03-15T04:48:01.901Z,0.50
2023-03-15T04:50:30.473Z,0.77
2023-03-15T04:53:01.661Z,0.80
2023-03-15T04:55:28.467Z,0.80
2023-03-15T04:57:56.745Z,0.80
2023-03-15T05:00:23.737Z,0.70
2023-03-15T05:02:55.103Z,0.52
2023-03-15T05:05:23.914Z,0.80
2023-03-15T05:07:51.084Z,0.95
2023-03-15T05:10:18.196Z,0.95
2023-03-15T05:12:45.013Z,0.85
2023-03-15T05:15:11.975Z,1.20
2023-03-15T05:17:38.888Z,0.85
2023-03-15T05:20:12.689Z,0.70
2023-03-15T05:22:40.862Z,0.75
2023-03-15T05:25:09.111Z,0.73
2023-03-15T05:27:37.106Z,0.90
2023-03-15T05:30:05.233Z,0.77
2023-03-15T05:32:34.652Z,0.70
2023-03-15T05:35:02.141Z,0.80
2023-03-15T05:37:29.908Z,0.55
2023-03-15T05:39:56.831Z,0.50
2023-03-15T05:42:26.347Z,0.88
2023-03-15T05:44:54.391Z,0.73
2023-03-15T05:47:21.939Z,0.43
2023-03-15T05:49:49.405Z,0.75
2023-03-15T05:52:16.882Z,0.70
2023-03-15T05:54:43.901Z,1.15
2023-03-15T05:57:20.163Z,0.70
2023-03-15T05:59:46.954Z,0.95
2023-03-15T06:02:14.249Z,0.55
2023-03-15T06:04:41.429Z,0.93
2023-03-15T06:07:08.547Z,1.40
2023-03-15T06:09:35.432Z,1.10
2023-03-15T06:12:02.277Z,0.95
2023-03-15T06:14:29.286Z,1.20
2023-03-15T06:16:56.730Z,1.02
2023-03-15T06:19:24.141Z,0.73
2023-03-15T06:21:51.430Z,1.30
2023-03-15T06:24:18.273Z,2.00
2023-03-15T06:26:45.120Z,1.80
2023-03-15T06:29:11.940Z,1.80
2023-03-15T06:31:38.745Z,1.40
2023-03-15T06:34:06.073Z,2.15
2023-03-15T06:36:33.385Z,1.80
2023-03-15T06:39:00.575Z,2.45
2023-03-15T06:41:27.429Z,1.83
2023-03-15T06:43:54.356Z,3.13
2023-03-15T06:46:21.230Z,4.22
2023-03-15T06:48:48.452Z,4.32
2023-03-15T06:51:15.364Z,4.25
2023-03-15T06:53:42.168Z,3.00
2023-03-15T06:56:09.524Z,2.97
2023-03-15T06:58:38.429Z,2.50
2023-03-15T07:01:05.774Z,2.75
2023-03-15T07:03:32.634Z,3.08
2023-03-15T07:05:59.416Z,2.75
2023-03-15T07:08:26.709Z,4.13
2023-03-15T07:10:54.007Z,4.80
2023-03-15T07:13:21.684Z,4.60
2023-03-15T07:15:53.318Z,5.68
2023-03-15T07:18:20.400Z,6.03
2023-03-15T07:20:47.249Z,8.55
2023-03-15T07:23:14.515Z,6.90
2023-03-15T07:25:54.517Z,5.68
2023-03-15T07:28:23.539Z,6.47
2023-03-15T07:31:03.480Z,4.80
2023-03-15T07:33:31.833Z,3.28
2023-03-15T07:35:59.804Z,5.00
2023-03-15T07:38:35.179Z,3.40
2023-03-15T07:41:03.497Z,5.18
2023-03-15T07:43:30.650Z,2.83
2023-03-15T07:45:57.573Z,2.80
2023-03-15T07:48:24.462Z,2.78
2023-03-15T07:50:51.790Z,3.42
2023-03-15T07:53:19.100Z,2.50
2023-03-15T07:55:48.498Z,1.35
2023-03-15T07:58:15.690Z,2.30
2023-03-15T08:00:43.008Z,2.10
2023-03-15T08:03:09.954Z,2.33
2023-03-15T08:05:36.950Z,2.00
2023-03-15T08:08:04.241Z,1.70
2023-03-15T08:10:31.773Z,2.17
2023-03-15T08:12:58.995Z,2.35
2023-03-15T08:15:26.274Z,2.30
2023-03-15T08:17:53.140Z,1.98
2023-03-15T08:20:20.101Z,1.58
2023-03-15T08:22:48.974Z,1.30
2023-03-15T08:25:19.132Z,1.17
2023-03-15T08:27:46.367Z,1.70
2023-03-15T08:30:15.208Z,2.90
2023-03-15T08:32:44.061Z,4.53
2023-03-15T08:35:15.840Z,5.95
2023-03-15T08:37:47.085Z,3.10
2023-03-15T08:40:16.311Z,6.60
2023-03-15T08:42:43.136Z,5.78
2023-03-15T08:45:10.506Z,3.30
2023-03-15T08:47:38.130Z,2.53
2023-03-15T08:50:07.329Z,1.80
2023-03-15T08:52:34.232Z,1.65
2023-03-15T08:55:01.319Z,1.10
2023-03-15T08:57:29.366Z,0.85
2023-03-15T08:59:58.852Z,1.77
2023-03-15T09:02:25.998Z,1.10
2023-03-15T09:04:53.648Z,1.20
2023-03-15T09:07:22.599Z,1.48
2023-03-15T09:09:49.679Z,1.02
2023-03-15T09:12:17.632Z,1.20
2023-03-15T09:14:44.493Z,0.88
2023-03-15T09:17:11.920Z,1.50
2023-03-15T09:19:39.290Z,1.48
2023-03-15T09:22:16.393Z,1.50
2023-03-15T09:24:43.999Z,1.42
2023-03-15T09:27:11.921Z,1.52
2023-03-15T09:29:38.950Z,1.38
2023-03-15T09:32:05.954Z,1.38
2023-03-15T09:34:41.711Z,1.40
2023-03-15T09:37:09.448Z,2.25
2023-03-15T09:39:36.702Z,2.47
2023-03-15T09:42:12.212Z,3.53
2023-03-15T09:44:48.983Z,2.13
2023-03-15T09:47:40.051Z,1.77
2023-03-15T09:50:19.959Z,2.38
2023-03-15T09:53:00.587Z,1.45
2023-03-15T09:55:28.853Z,2.00
2023-03-15T09:58:11.539Z,2.22
2023-03-15T10:00:47.698Z,1.17
2023-03-15T10:03:37.519Z,1.50
2023-03-15T10:06:15.474Z,1.20
2023-03-15T10:08:43.170Z,2.10
2023-03-15T10:11:15.308Z,1.50
2023-03-15T10:13:49.220Z,1.00
2023-03-15T10:16:24.862Z,2.08
2023-03-15T10:18:57.506Z,1.17
2023-03-15T10:21:58.535Z,1.63
2023-03-15T10:24:48.825Z,1.15
2023-03-15T10:27:40.842Z,1.42
2023-03-15T10:30:18.569Z,1.58
2023-03-15T10:33:11.245Z,1.45
2023-03-15T10:35:38.786Z,1.50
2023-03-15T10:38:22.433Z,1.30
2023-03-15T10:40:55.393Z,1.83
2023-03-15T10:43:24.023Z,1.30
2023-03-15T10:46:12.847Z,2.30
2023-03-15T10:48:51.643Z,0.88
2023-03-15T10:51:31.492Z,1.10
2023-03-15T10:54:21.016Z,1.70
2023-03-15T10:56:50.079Z,1.23
2023-03-15T10:59:26.175Z,1.85
2023-03-15T11:02:07.448Z,1.95
2023-03-15T11:04:34.684Z,2.17
2023-03-15T11:07:03.949Z,2.40
2023-03-15T11:09:42.507Z,2.05
2023-03-15T11:12:16.768Z,2.10
2023-03-15T11:14:48.811Z,1.60
2023-03-15T11:17:25.092Z,1.73
2023-03-15T11:19:59.615Z,2.58
2023-03-15T11:22:26.985Z,3.47
2023-03-15T11:24:58.478Z,2.40
2023-03-15T11:27:26.624Z,1.65
2023-03-15T11:29:58.286Z,2.70
2023-03-15T11:32:27.799Z,2.10
2023-03-15T11:35:30.686Z,1.85
2023-03-15T11:38:14.537Z,2.78
2023-03-15T11:40:48.887Z,2.95
2023-03-15T11:43:21.989Z,1.83
2023-03-15T11:45:57.948Z,2.40
2023-03-15T11:48:34.337Z,2.35
2023-03-15T11:51:02.024Z,2.30
2023-03-15T11:53:37.176Z,2.35
2023-03-15T11:56:44.226Z,2.65
2023-03-15T11:59:15.481Z,2.30
2023-03-15T12:02:00.351Z,4.38
2023-03-15T12:04:27.109Z,2.90
2023-03-15T12:06:56.779Z,5.28
2023-03-15T12:09:32.628Z,5.13
2023-03-15T12:12:02.221Z,4.57
2023-03-15T12:14:30.732Z,4.28
2023-03-15T12:17:29.243Z,2.70
2023-03-15T12:20:02.138Z,2.20
2023-03-15T12:22:33.528Z,2.15
2023-03-15T12:25:31.165Z,1.33
2023-03-15T12:27:59.751Z,1.23
2023-03-15T12:30:38.748Z,1.70
2023-03-15T12:33:17.932Z,1.55
2023-03-15T12:35:45.210Z,1.55
2023-03-15T12:38:22.666Z,2.20
2023-03-15T12:40:58.909Z,2.63
2023-03-15T12:43:45.593Z,3.30
2023-03-15T12:46:41.216Z,2.63
2023-03-15T12:49:12.303Z,2.58
2023-03-15T12:52:06.626Z,1.50
2023-03-15T12:55:02.874Z,1.58
2023-03-15T12:57:36.872Z,2.72
2023-03-15T13:00:11.934Z,2.75
2023-03-15T13:02:46.571Z,2.20
2023-03-15T13:05:18.568Z,3.30
2023-03-15T13:08:06.933Z,2.25
2023-03-15T13:10:45.626Z,3.20
2023-03-15T13:13:34.168Z,2.67
2023-03-15T13:16:03.933Z,2.03
2023-03-15T13:18:36.529Z,2.88
2023-03-15T13:21:37.176Z,3.10
2023-03-15T13:24:11.654Z,2.15
2023-03-15T13:26:52.608Z,2.30
2023-03-15T13:29:29.725Z,4.53
2023-03-15T13:32:03.230Z,3.60
2023-03-15T13:34:33.019Z,8.13
2023-03-15T13:37:02.274Z,7.22
2023-03-15T13:39:34.222Z,3.65
2023-03-15T13:42:04.420Z,3.63
2023-03-15T13:44:33.107Z,2.55
2023-03-15T13:47:00.616Z,2.22
2023-03-15T13:49:33.032Z,2.00
2023-03-15T13:52:04.088Z,2.72
2023-03-15T13:54:32.485Z,1.90
2023-03-15T13:57:06.420Z,1.65
2023-03-15T13:59:45.472Z,1.95
2023-03-15T14:02:25.183Z,2.08
2023-03-15T14:04:58.304Z,2.33
2023-03-15T14:07:35.204Z,2.08
2023-03-15T14:10:08.805Z,2.10
2023-03-15T14:12:35.861Z,2.60
2023-03-15T14:15:02.672Z,2.53
2023-03-15T14:17:31.500Z,1.95
2023-03-15T14:20:09.220Z,1.80
2023-03-15T14:22:41.126Z,1.38
2023-03-15T14:25:23.156Z,1.85
2023-03-15T14:27:50.184Z,2.53
2023-03-15T14:30:25.650Z,2.03
2023-03-15T14:32:56.383Z,1.60
2023-03-15T14:35:40.089Z,2.40
2023-03-15T14:38:21.170Z,2.08
2023-03-15T14:40:48.734Z,1.63
2023-03-15T14:43:15.954Z,2.22
2023-03-15T14:45:45.809Z,2.35
2023-03-15T14:48:28.356Z,2.30
2023-03-15T14:50:56.122Z,2.45
2023-03-15T14:53:26.218Z,2.28
2023-03-15T14:55:53.436Z,2.25
2023-03-15T14:58:22.152Z,3.70
2023-03-15T15:00:51.121Z,4.40
2023-03-15T15:03:38.671Z,4.40
2023-03-15T15:06:09.012Z,4.60
2023-03-15T15:08:39.939Z,3.75
2023-03-15T15:11:11.143Z,2.40
2023-03-15T15:13:39.252Z,2.83
2023-03-15T15:16:07.608Z,2.80
2023-03-15T15:18:36.297Z,3.30
2023-03-15T15:21:33.673Z,2.35
2023-03-15T15:24:03.839Z,2.30
2023-03-15T15:26:31.982Z,2.45
2023-03-15T15:29:00.667Z,1.70
2023-03-15T15:31:29.097Z,2.03
2023-03-15T15:33:56.990Z,2.42
2023-03-15T15:36:32.489Z,1.85
2023-03-15T15:39:07.148Z,2.05
2023-03-15T15:41:34.421Z,2.55
2023-03-15T15:44:01.842Z,4.72
2023-03-15T15:46:28.908Z,3.28
2023-03-15T15:48:56.188Z,3.92
2023-03-15T15:51:29.246Z,2.47
2023-03-15T15:54:00.693Z,3.60
2023-03-15T15:56:34.944Z,2.78
2023-03-15T15:59:04.630Z,4.38
2023-03-15T16:01:32.146Z,3.75
2023-03-15T16:04:00.256Z,2.75
2023-03-15T16:06:27.364Z,3.17
2023-03-15T16:08:54.919Z,2.20
2023-03-15T16:11:22.166Z,2.00
2023-03-15T16:13:53.111Z,2.53
2023-03-15T16:16:20.953Z,3.03
2023-03-15T16:18:48.208Z,3.95
2023-03-15T16:21:29.914Z,5.82
2023-03-15T16:24:03.498Z,3.33
2023-03-15T16:26:31.137Z,1.70
2023-03-15T16:28:58.116Z,3.65
2023-03-15T16:31:25.076Z,2.15
2023-03-15T16:33:52.318Z,1.90
2023-03-15T16:36:21.849Z,1.65
2023-03-15T16:38:49.080Z,2.22
2023-03-15T16:41:17.847Z,1.50
2023-03-15T16:43:48.675Z,1.80
2023-03-15T16:46:21.415Z,1.10
2023-03-15T16:48:48.262Z,1.80
2023-03-15T16:51:16.258Z,2.42
2023-03-15T16:53:44.694Z,2.17
2023-03-15T16:56:15.461Z,1.50
2023-03-15T16:58:43.564Z,2.08
2023-03-15T17:01:11.289Z,2.17
2023-03-15T17:03:38.313Z,1.10
2023-03-15T17:06:05.314Z,2.25
2023-03-15T17:08:33.501Z,1.77
2023-03-15T17:11:00.860Z,2.03
2023-03-15T17:13:32.060Z,1.50
2023-03-15T17:15:59.778Z,0.90
2023-03-15T17:18:28.461Z,1.17
2023-03-15T17:20:55.849Z,1.80
2023-03-15T17:23:23.690Z,1.33
2023-03-15T17:25:51.052Z,1.27
2023-03-15T17:28:17.952Z,1.65
2023-03-15T17:30:44.867Z,1.13
2023-03-15T17:33:11.930Z,1.90
2023-03-15T17:35:43.939Z,1.80
2023-03-15T17:38:18.183Z,2.30
2023-03-15T17:40:45.645Z,2.05
2023-03-15T17:43:14.664Z,1.58
2023-03-15T17:45:42.281Z,1.48
2023-03-15T17:48:09.492Z,1.40
2023-03-15T17:50:36.640Z,1.95
2023-03-15T17:53:03.975Z,1.33
2023-03-15T17:55:34.896Z,1.80
2023-03-15T17:58:03.600Z,2.30
2023-03-15T18:00:32.662Z,6.25
2023-03-15T18:03:00.965Z,3.92
2023-03-15T18:05:29.254Z,7.38
2023-03-15T18:07:59.843Z,9.00
2023-03-15T18:10:35.511Z,4.90
2023-03-15T18:13:03.086Z,3.97
2023-03-15T18:15:29.950Z,5.20
2023-03-15T18:17:57.322Z,4.65
2023-03-15T18:20:24.753Z,2.95
2023-03-15T18:22:52.205Z,3.60
2023-03-15T18:25:25.934Z,4.25
2023-03-15T18:27:53.362Z,3.90
2023-03-15T18:30:23.000Z,4.35
2023-03-15T18:32:51.133Z,5.28
2023-03-15T18:35:24.503Z,1.70
2023-03-15T18:38:00.908Z,5.47
2023-03-15T18:40:30.172Z,7.03
2023-03-15T18:42:58.753Z,7.80
2023-03-15T18:45:30.948Z,12.60
2023-03-15T18:47:59.938Z,7.95
2023-03-15T18:50:28.101Z,11.15
2023-03-15T18:52:55.449Z,11.52
2023-03-15T18:55:23.145Z,5.55
2023-03-15T18:57:54.193Z,6.82
2023-03-15T19:00:27.372Z,4.45
2023-03-15T19:02:57.593Z,3.67
2023-03-15T19:05:27.813Z,12.18
2023-03-15T19:07:55.290Z,16.77
2023-03-15T19:10:23.325Z,20.10
2023-03-15T19:12:52.320Z,15.68
2023-03-15T19:15:21.498Z,15.48
2023-03-15T19:17:51.053Z,17.40
2023-03-15T19:20:21.579Z,17.92
2023-03-15T19:22:49.960Z,15.77
2023-03-15T19:25:17.133Z,11.57
2023-03-15T19:27:44.714Z,17.30
2023-03-15T19:30:16.991Z,25.83
2023-03-15T19:32:48.110Z,17.83
2023-03-15T19:35:16.347Z,13.98
2023-03-15T19:37:44.499Z,16.65
2023-03-15T19:40:13.324Z,17.67
2023-03-15T19:42:40.807Z,27.02
2023-03-15T19:45:09.072Z,24.30
2023-03-15T19:47:35.909Z,22.40
2023-03-15T19:50:03.302Z,13.40
2023-03-15T19:52:30.267Z,12.27
2023-03-15T19:54:57.430Z,10.93
2023-03-15T19:57:24.654Z,12.98
2023-03-15T19:59:54.453Z,11.65
2023-03-15T20:02:21.344Z,9.75
2023-03-15T20:04:48.534Z,10.18
2023-03-15T20:07:15.376Z,7.13
2023-03-15T20:09:42.311Z,8.57
2023-03-15T20:12:13.132Z,11.48
2023-03-15T20:14:40.303Z,12.00
2023-03-15T20:17:07.105Z,10.30
2023-03-15T20:19:34.053Z,13.27
2023-03-15T20:22:01.248Z,12.32
2023-03-15T20:24:28.225Z,12.48
2023-03-15T20:26:55.420Z,13.15
2023-03-15T20:29:22.482Z,13.63
2023-03-15T20:31:50.928Z,12.95
2023-03-15T20:34:17.889Z,11.30
2023-03-15T20:36:45.133Z,9.85
2023-03-15T20:39:12.394Z,8.85
2023-03-15T20:41:39.281Z,9.32
2023-03-15T20:44:06.681Z,9.55
2023-03-15T20:46:34.055Z,9.98
2023-03-15T20:49:01.177Z,9.80
2023-03-15T20:51:29.343Z,7.13
2023-03-15T20:53:56.666Z,7.85
2023-03-15T20:56:24.071Z,7.85
2023-03-15T20:58:51.339Z,6.97
2023-03-15T21:01:18.218Z,7.15
2023-03-15T21:03:45.723Z,7.32
2023-03-15T21:06:14.014Z,6.18
2023-03-15T21:08:42.448Z,5.13
2023-03-15T21:11:09.792Z,4.97
2023-03-15T21:13:36.722Z,4.85
2023-03-15T21:16:05.170Z,5.35
2023-03-15T21:18:33.607Z,6.22
2023-03-15T21:21:03.086Z,6.80
2023-03-15T21:23:33.645Z,7.32
2023-03-15T21:26:06.440Z,7.35
2023-03-15T21:28:34.154Z,8.35
2023-03-15T21:31:01.193Z,10.18
2023-03-15T21:33:30.023Z,11.60
2023-03-15T21:35:59.220Z,8.70
2023-03-15T21:38:31.513Z,10.35
2023-03-15T21:40:59.912Z,10.75
2023-03-15T21:43:29.146Z,10.50
2023-03-15T21:46:02.963Z,10.15
2023-03-15T21:48:30.549Z,9.80
2023-03-15T21:50:57.394Z,10.13
2023-03-15T21:53:24.390Z,8.98
2023-03-15T21:55:56.146Z,9.80
2023-03-15T21:58:24.030Z,7.55
2023-03-15T22:01:00.123Z,7.93
2023-03-15T22:03:28.321Z,8.07
2023-03-15T22:05:55.350Z,9.13
2023-03-15T22:08:22.888Z,7.10
2023-03-15T22:10:57.595Z,7.75
2023-03-15T22:13:25.314Z,7.05
2023-03-15T22:15:55.344Z,6.18
2023-03-15T22:18:22.820Z,5.50
2023-03-15T22:20:51.150Z,5.22
2023-03-15T22:23:18.739Z,5.20
2023-03-15T22:25:45.622Z,5.38
2023-03-15T22:28:12.976Z,6.20
2023-03-15T22:30:40.926Z,7.63
2023-03-15T22:33:08.698Z,7.80
2023-03-15T22:35:35.688Z,8.35
2023-03-15T22:38:09.938Z,7.18
2023-03-15T22:40:40.030Z,6.00
2023-03-15T22:43:08.251Z,7.43
2023-03-15T22:45:35.126Z,6.53
2023-03-15T22:48:02.915Z,6.72
2023-03-15T22:50:29.925Z,6.28
2023-03-15T22:52:57.198Z,6.07
2023-03-15T22:55:24.942Z,7.00
2023-03-15T22:57:52.403Z,6.85
2023-03-15T23:00:22.198Z,6.70
2023-03-15T23:02:49.498Z,5.72
2023-03-15T23:05:17.992Z,6.50
2023-03-15T23:07:45.713Z,6.28
2023-03-15T23:10:12.962Z,6.28
2023-03-15T23:12:39.886Z,5.25
2023-03-15T23:15:07.769Z,5.32
2023-03-15T23:17:34.680Z,4.95
2023-03-15T23:20:01.459Z,4.72
2023-03-15T23:22:29.200Z,4.90
2023-03-15T23:24:58.137Z,3.80
2023-03-15T23:27:26.225Z,3.75
2023-03-15T23:29:55.133Z,3.92
2023-03-15T23:32:23.083Z,4.05
2023-03-15T23:34:51.150Z,3.72
2023-03-15T23:37:18.033Z,3.53
2023-03-15T23:39:45.265Z,3.30
2023-03-15T23:42:12.336Z,2.72
2023-03-15T23:44:39.244Z,3.95
2023-03-15T23:47:06.660Z,3.20
2023-03-15T23:49:34.384Z,3.22
2023-03-15T23:52:05.831Z,3.72
2023-03-15T23:54:39.706Z,3.30
2023-03-15T23:57:07.936Z,3.05
2023-03-15T23:59:36.417Z,3.17
